sensor_id;sensor_type;location;lat;lon;timestamp;pressure;altitude;pressure_sealevel;temperature;humidity
967;BME280;56108;48.730;9.304;2022-09-03T00:00:19;97307.34;;;16.40;59.26
967;BME280;56108;48.730;9.304;2022-09-03T00:02:34;97303.94;;;16.38;59.52
967;BME280;56108;48.730;9.304;2022-09-03T00:04:50;97300.81;;;16.43;59.12
967;BME280;56108;48.730;9.304;2022-09-03T00:07:11;97293.25;;;16.56;58.38
967;BME280;56108;48.730;9.304;2022-09-03T00:09:25;97296.38;;;16.52;58.81
967;BME280;56108;48.730;9.304;2022-09-03T00:11:49;97302.59;;;16.52;58.57
967;BME280;56108;48.730;9.304;2022-09-03T00:14:03;97289.56;;;16.57;58.49
967;BME280;56108;48.730;9.304;2022-09-03T00:16:16;97286.56;;;16.60;58.37
967;BME280;56108;48.730;9.304;2022-09-03T00:18:28;97282.72;;;16.63;57.87
967;BME280;56108;48.730;9.304;2022-09-03T00:20:41;97275.50;;;16.63;58.27
967;BME280;56108;48.730;9.304;2022-09-03T00:22:52;97271.44;;;16.59;58.64
967;BME280;56108;48.730;9.304;2022-09-03T00:25:04;97279.34;;;16.61;59.25
967;BME280;56108;48.730;9.304;2022-09-03T00:27:21;97281.34;;;16.59;58.39
967;BME280;56108;48.730;9.304;2022-09-03T00:29:34;97285.69;;;16.60;58.69
967;BME280;56108;48.730;9.304;2022-09-03T00:31:54;97278.81;;;16.57;58.92
967;BME280;56108;48.730;9.304;2022-09-03T00:34:09;97278.13;;;16.55;58.75
967;BME280;56108;48.730;9.304;2022-09-03T00:36:22;97276.81;;;16.59;58.59
967;BME280;56108;48.730;9.304;2022-09-03T00:38:32;97280.31;;;16.60;58.42
967;BME280;56108;48.730;9.304;2022-09-03T00:40:59;97276.66;;;16.61;58.78
967;BME280;56108;48.730;9.304;2022-09-03T00:43:19;97285.56;;;16.61;58.60
967;BME280;56108;48.730;9.304;2022-09-03T00:45:33;97286.03;;;16.57;58.75
967;BME280;56108;48.730;9.304;2022-09-03T00:47:57;97285.13;;;16.66;58.66
967;BME280;56108;48.730;9.304;2022-09-03T00:50:16;97285.69;;;16.60;59.51
967;BME280;56108;48.730;9.304;2022-09-03T00:52:37;97281.34;;;16.59;59.83
967;BME280;56108;48.730;9.304;2022-09-03T00:54:54;97284.13;;;16.67;58.41
967;BME280;56108;48.730;9.304;2022-09-03T00:57:21;97280.69;;;16.75;57.84
967;BME280;56108;48.730;9.304;2022-09-03T00:59:34;97277.69;;;16.78;57.81
967;BME280;56108;48.730;9.304;2022-09-03T01:01:50;97282.25;;;16.77;58.05
967;BME280;56108;48.730;9.304;2022-09-03T01:04:27;97291.81;;;16.80;58.27
967;BME280;56108;48.730;9.304;2022-09-03T01:06:45;97286.78;;;16.77;57.74
967;BME280;56108;48.730;9.304;2022-09-03T01:09:02;97283.75;;;16.80;57.92
967;BME280;56108;48.730;9.304;2022-09-03T01:11:25;97282.53;;;16.74;58.17
967;BME280;56108;48.730;9.304;2022-09-03T01:13:41;97278.16;;;16.73;58.09
967;BME280;56108;48.730;9.304;2022-09-03T01:16:00;97273.91;;;16.70;58.26
967;BME280;56108;48.730;9.304;2022-09-03T01:18:18;97276.16;;;16.75;58.19
967;BME280;56108;48.730;9.304;2022-09-03T01:20:40;97268.09;;;16.75;58.01
967;BME280;56108;48.730;9.304;2022-09-03T01:25:41;97276.16;;;16.75;58.16
967;BME280;56108;48.730;9.304;2022-09-03T01:28:09;97275.19;;;16.76;58.10
967;BME280;56108;48.730;9.304;2022-09-03T01:30:23;97271.22;;;16.70;58.17
967;BME280;56108;48.730;9.304;2022-09-03T01:32:38;97273.03;;;16.70;58.48
967;BME280;56108;48.730;9.304;2022-09-03T01:34:56;97280.16;;;16.71;58.59
967;BME280;56108;48.730;9.304;2022-09-03T01:37:14;97279.00;;;16.74;59.66
967;BME280;56108;48.730;9.304;2022-09-03T01:39:31;97285.97;;;16.66;58.41
967;BME280;56108;48.730;9.304;2022-09-03T01:41:47;97284.78;;;16.69;58.49
967;BME280;56108;48.730;9.304;2022-09-03T01:44:21;97275.66;;;16.62;59.94
967;BME280;56108;48.730;9.304;2022-09-03T01:46:37;97282.16;;;16.59;59.05
967;BME280;56108;48.730;9.304;2022-09-03T01:48:51;97289.84;;;16.54;60.06
967;BME280;56108;48.730;9.304;2022-09-03T01:51:07;97284.78;;;16.51;59.87
967;BME280;56108;48.730;9.304;2022-09-03T01:53:33;97287.47;;;16.51;60.42
967;BME280;56108;48.730;9.304;2022-09-03T01:55:59;97289.00;;;16.54;60.14
967;BME280;56108;48.730;9.304;2022-09-03T01:58:16;97287.03;;;16.56;60.20
967;BME280;56108;48.730;9.304;2022-09-03T02:00:32;97291.22;;;16.58;59.52
967;BME280;56108;48.730;9.304;2022-09-03T02:02:42;97282.34;;;16.58;59.64
967;BME280;56108;48.730;9.304;2022-09-03T02:04:57;97286.69;;;16.59;59.34
967;BME280;56108;48.730;9.304;2022-09-03T02:07:08;97287.16;;;16.54;60.07
967;BME280;56108;48.730;9.304;2022-09-03T02:09:17;97287.31;;;16.53;60.11
967;BME280;56108;48.730;9.304;2022-09-03T02:11:25;97290.56;;;16.56;60.19
967;BME280;56108;48.730;9.304;2022-09-03T02:13:37;97297.63;;;16.57;59.95
967;BME280;56108;48.730;9.304;2022-09-03T02:15:51;97288.31;;;16.52;60.34
967;BME280;56108;48.730;9.304;2022-09-03T02:18:02;97295.81;;;16.48;61.12
967;BME280;56108;48.730;9.304;2022-09-03T02:20:14;97297.91;;;16.54;61.00
967;BME280;56108;48.730;9.304;2022-09-03T02:22:23;97299.84;;;16.62;60.25
967;BME280;56108;48.730;9.304;2022-09-03T02:24:32;97301.59;;;16.53;60.73
967;BME280;56108;48.730;9.304;2022-09-03T02:26:41;97304.44;;;16.52;60.95
967;BME280;56108;48.730;9.304;2022-09-03T02:28:53;97300.34;;;16.48;60.96
967;BME280;56108;48.730;9.304;2022-09-03T02:31:05;97305.03;;;16.46;60.74
967;BME280;56108;48.730;9.304;2022-09-03T02:33:13;97302.88;;;16.49;60.57
967;BME280;56108;48.730;9.304;2022-09-03T02:35:22;97315.78;;;16.46;61.04
967;BME280;56108;48.730;9.304;2022-09-03T02:37:31;97309.84;;;16.42;61.07
967;BME280;56108;48.730;9.304;2022-09-03T02:39:39;97302.09;;;16.39;61.07
967;BME280;56108;48.730;9.304;2022-09-03T02:41:50;97297.72;;;16.38;62.03
967;BME280;56108;48.730;9.304;2022-09-03T02:44:03;97289.59;;;16.30;62.04
967;BME280;56108;48.730;9.304;2022-09-03T02:46:17;97292.91;;;16.41;61.43
967;BME280;56108;48.730;9.304;2022-09-03T02:48:28;97293.59;;;16.43;61.15
967;BME280;56108;48.730;9.304;2022-09-03T02:50:39;97290.88;;;16.26;62.18
967;BME280;56108;48.730;9.304;2022-09-03T02:52:50;97285.00;;;16.12;62.62
967;BME280;56108;48.730;9.304;2022-09-03T02:54:58;97279.38;;;16.06;62.75
967;BME280;56108;48.730;9.304;2022-09-03T02:57:06;97289.47;;;15.94;63.80
967;BME280;56108;48.730;9.304;2022-09-03T02:59:14;97284.53;;;15.89;64.06
967;BME280;56108;48.730;9.304;2022-09-03T03:01:26;97294.44;;;15.89;63.87
967;BME280;56108;48.730;9.304;2022-09-03T03:03:36;97286.66;;;15.86;63.96
967;BME280;56108;48.730;9.304;2022-09-03T03:05:46;97293.03;;;15.85;63.65
967;BME280;56108;48.730;9.304;2022-09-03T03:07:55;97288.81;;;15.82;63.97
967;BME280;56108;48.730;9.304;2022-09-03T03:10:03;97295.63;;;15.77;64.30
967;BME280;56108;48.730;9.304;2022-09-03T03:12:11;97298.13;;;15.78;64.32
967;BME280;56108;48.730;9.304;2022-09-03T03:14:21;97298.97;;;15.79;64.57
967;BME280;56108;48.730;9.304;2022-09-03T03:16:35;97289.94;;;15.80;64.56
967;BME280;56108;48.730;9.304;2022-09-03T03:18:44;97289.66;;;15.83;64.54
967;BME280;56108;48.730;9.304;2022-09-03T03:20:52;97297.41;;;15.86;64.78
967;BME280;56108;48.730;9.304;2022-09-03T03:23:00;97294.19;;;15.82;65.32
967;BME280;56108;48.730;9.304;2022-09-03T03:25:08;97291.66;;;15.71;65.88
967;BME280;56108;48.730;9.304;2022-09-03T03:27:16;97292.81;;;15.69;65.68
967;BME280;56108;48.730;9.304;2022-09-03T03:29:25;97296.59;;;15.76;65.48
967;BME280;56108;48.730;9.304;2022-09-03T03:31:35;97300.81;;;15.78;65.29
967;BME280;56108;48.730;9.304;2022-09-03T03:33:44;97297.88;;;15.72;66.07
967;BME280;56108;48.730;9.304;2022-09-03T03:35:52;97297.03;;;15.61;66.16
967;BME280;56108;48.730;9.304;2022-09-03T03:38:00;97300.00;;;15.49;66.58
967;BME280;56108;48.730;9.304;2022-09-03T03:40:09;97298.16;;;15.49;66.56
967;BME280;56108;48.730;9.304;2022-09-03T03:42:17;97298.16;;;15.49;66.56
967;BME280;56108;48.730;9.304;2022-09-03T03:44:24;97298.47;;;15.46;67.04
967;BME280;56108;48.730;9.304;2022-09-03T03:46:37;97301.28;;;15.45;66.83
967;BME280;56108;48.730;9.304;2022-09-03T03:48:46;97303.97;;;15.45;66.89
967;BME280;56108;48.730;9.304;2022-09-03T03:50:54;97304.13;;;15.43;66.99
967;BME280;56108;48.730;9.304;2022-09-03T03:53:02;97304.13;;;15.43;67.14
967;BME280;56108;48.730;9.304;2022-09-03T03:55:10;97308.06;;;15.39;67.77
967;BME280;56108;48.730;9.304;2022-09-03T03:57:20;97307.94;;;15.40;67.32
967;BME280;56108;48.730;9.304;2022-09-03T03:59:28;97315.84;;;15.42;67.83
967;BME280;56108;48.730;9.304;2022-09-03T04:01:39;97313.84;;;15.44;67.63
967;BME280;56108;48.730;9.304;2022-09-03T04:03:47;97317.66;;;15.51;67.29
967;BME280;56108;48.730;9.304;2022-09-03T04:06:00;97306.09;;;15.51;67.58
967;BME280;56108;48.730;9.304;2022-09-03T04:08:08;97311.56;;;15.59;66.85
967;BME280;56108;48.730;9.304;2022-09-03T04:10:17;97302.00;;;15.56;67.38
967;BME280;56108;48.730;9.304;2022-09-03T04:12:27;97308.19;;;15.57;67.11
967;BME280;56108;48.730;9.304;2022-09-03T04:14:35;97302.13;;;15.55;67.81
967;BME280;56108;48.730;9.304;2022-09-03T04:16:45;97304.25;;;15.51;67.42
967;BME280;56108;48.730;9.304;2022-09-03T04:18:55;97306.94;;;15.51;67.56
967;BME280;56108;48.730;9.304;2022-09-03T04:21:05;97303.53;;;15.49;67.61
967;BME280;56108;48.730;9.304;2022-09-03T04:23:13;97310.31;;;15.53;67.70
967;BME280;56108;48.730;9.304;2022-09-03T04:25:21;97302.84;;;15.47;67.51
967;BME280;56108;48.730;9.304;2022-09-03T04:27:29;97300.16;;;15.47;67.59
967;BME280;56108;48.730;9.304;2022-09-03T04:29:37;97296.75;;;15.45;67.55
967;BME280;56108;48.730;9.304;2022-09-03T04:31:48;97296.06;;;15.43;68.00
967;BME280;56108;48.730;9.304;2022-09-03T04:34:08;97294.09;;;15.45;67.92
967;BME280;56108;48.730;9.304;2022-09-03T04:36:18;97303.53;;;15.49;67.86
967;BME280;56108;48.730;9.304;2022-09-03T04:38:28;97307.94;;;15.40;68.11
967;BME280;56108;48.730;9.304;2022-09-03T04:40:36;97307.50;;;15.45;68.00
967;BME280;56108;48.730;9.304;2022-09-03T04:42:44;97312.44;;;15.50;67.92
967;BME280;56108;48.730;9.304;2022-09-03T04:44:52;97317.09;;;15.57;67.43
967;BME280;56108;48.730;9.304;2022-09-03T04:47:04;97312.31;;;15.51;67.83
967;BME280;56108;48.730;9.304;2022-09-03T04:49:12;97310.75;;;15.49;68.23
967;BME280;56108;48.730;9.304;2022-09-03T04:51:22;97310.16;;;15.45;68.23
967;BME280;56108;48.730;9.304;2022-09-03T04:53:33;97311.03;;;15.46;68.27
967;BME280;56108;48.730;9.304;2022-09-03T04:55:41;97313.16;;;15.42;68.50
967;BME280;56108;48.730;9.304;2022-09-03T04:57:51;97314.69;;;15.45;68.17
967;BME280;56108;48.730;9.304;2022-09-03T04:59:59;97319.09;;;15.46;68.53
967;BME280;56108;48.730;9.304;2022-09-03T05:02:10;97318.94;;;15.47;68.83
967;BME280;56108;48.730;9.304;2022-09-03T05:04:19;97316.09;;;15.58;67.84
967;BME280;56108;48.730;9.304;2022-09-03T05:06:29;97321.63;;;15.67;67.92
967;BME280;56108;48.730;9.304;2022-09-03T05:08:42;97304.97;;;15.63;68.00
967;BME280;56108;48.730;9.304;2022-09-03T05:10:59;97305.63;;;15.55;68.86
967;BME280;56108;48.730;9.304;2022-09-03T05:13:07;97310.03;;;15.56;68.64
967;BME280;56108;48.730;9.304;2022-09-03T05:15:19;97304.09;;;15.53;69.19
967;BME280;56108;48.730;9.304;2022-09-03T05:17:30;97305.38;;;15.49;69.24
967;BME280;56108;48.730;9.304;2022-09-03T05:19:41;97312.44;;;15.50;69.20
967;BME280;56108;48.730;9.304;2022-09-03T05:21:50;97306.09;;;15.51;69.28
967;BME280;56108;48.730;9.304;2022-09-03T05:23:58;97308.78;;;15.51;69.36
967;BME280;56108;48.730;9.304;2022-09-03T05:26:08;97314.56;;;15.56;69.24
967;BME280;56108;48.730;9.304;2022-09-03T05:28:17;97313.41;;;15.58;69.27
967;BME280;56108;48.730;9.304;2022-09-03T05:30:24;97304.97;;;15.63;69.47
967;BME280;56108;48.730;9.304;2022-09-03T05:32:35;97318.03;;;15.85;69.09
967;BME280;56108;48.730;9.304;2022-09-03T05:34:44;97311.75;;;16.04;68.71
967;BME280;56108;48.730;9.304;2022-09-03T05:36:52;97317.97;;;16.05;68.25
967;BME280;56108;48.730;9.304;2022-09-03T05:39:03;97319.63;;;16.06;68.29
967;BME280;56108;48.730;9.304;2022-09-03T05:41:15;97314.41;;;16.14;67.65
967;BME280;56108;48.730;9.304;2022-09-03T05:43:23;97315.84;;;16.08;68.32
967;BME280;56108;48.730;9.304;2022-09-03T05:45:31;97319.75;;;16.14;68.22
967;BME280;56108;48.730;9.304;2022-09-03T05:47:43;97317.06;;;16.14;68.41
967;BME280;56108;48.730;9.304;2022-09-03T05:49:51;97319.41;;;16.27;68.30
967;BME280;56108;48.730;9.304;2022-09-03T05:51:58;97317.69;;;16.35;68.28
967;BME280;56108;48.730;9.304;2022-09-03T05:54:07;97327.97;;;16.40;68.16
967;BME280;56108;48.730;9.304;2022-09-03T05:56:17;97329.84;;;16.57;67.55
967;BME280;56108;48.730;9.304;2022-09-03T05:58:29;97330.41;;;16.61;67.65
967;BME280;56108;48.730;9.304;2022-09-03T06:00:37;97334.53;;;16.55;68.13
967;BME280;56108;48.730;9.304;2022-09-03T06:02:52;97330.47;;;16.51;68.44
967;BME280;56108;48.730;9.304;2022-09-03T06:05:02;97331.72;;;16.29;69.79
967;BME280;56108;48.730;9.304;2022-09-03T06:07:11;97337.97;;;16.48;69.55
967;BME280;56108;48.730;9.304;2022-09-03T06:09:20;97332.22;;;16.33;69.66
967;BME280;56108;48.730;9.304;2022-09-03T06:11:29;97331.59;;;16.21;70.43
967;BME280;56108;48.730;9.304;2022-09-03T06:13:41;97337.00;;;16.11;71.08
967;BME280;56108;48.730;9.304;2022-09-03T06:15:49;97336.56;;;16.16;70.95
967;BME280;56108;48.730;9.304;2022-09-03T06:18:00;97337.31;;;16.08;71.56
967;BME280;56108;48.730;9.304;2022-09-03T06:20:09;97325.34;;;15.93;71.85
967;BME280;56108;48.730;9.304;2022-09-03T06:22:17;97330.53;;;16.04;72.06
967;BME280;56108;48.730;9.304;2022-09-03T06:24:25;97337.13;;;16.20;71.47
967;BME280;56108;48.730;9.304;2022-09-03T06:26:33;97335.97;;;16.22;70.91
967;BME280;56108;48.730;9.304;2022-09-03T06:28:42;97340.22;;;16.25;71.31
967;BME280;56108;48.730;9.304;2022-09-03T06:30:57;97341.25;;;16.41;70.26
967;BME280;56108;48.730;9.304;2022-09-03T06:33:09;97342.69;;;16.63;69.60
967;BME280;56108;48.730;9.304;2022-09-03T06:35:17;97347.56;;;16.78;69.08
967;BME280;56108;48.730;9.304;2022-09-03T06:37:25;97340.22;;;16.70;69.52
967;BME280;56108;48.730;9.304;2022-09-03T06:39:33;97350.97;;;16.70;69.62
967;BME280;56108;48.730;9.304;2022-09-03T06:41:41;97346.38;;;16.62;69.60
967;BME280;56108;48.730;9.304;2022-09-03T06:43:50;97347.81;;;16.57;69.66
967;BME280;56108;48.730;9.304;2022-09-03T06:46:01;97347.75;;;16.76;69.32
967;BME280;56108;48.730;9.304;2022-09-03T06:48:13;97345.91;;;16.94;68.93
967;BME280;56108;48.730;9.304;2022-09-03T06:50:21;97348.03;;;16.91;68.87
967;BME280;56108;48.730;9.304;2022-09-03T06:52:30;97348.03;;;16.73;69.44
967;BME280;56108;48.730;9.304;2022-09-03T06:54:38;97353.41;;;16.63;70.17
967;BME280;56108;48.730;9.304;2022-09-03T06:56:46;97347.19;;;16.73;70.23
967;BME280;56108;48.730;9.304;2022-09-03T06:58:55;97339.81;;;16.75;69.95
967;BME280;56108;48.730;9.304;2022-09-03T07:01:06;97344.50;;;16.90;70.50
967;BME280;56108;48.730;9.304;2022-09-03T07:03:17;97346.63;;;16.97;69.58
967;BME280;56108;48.730;9.304;2022-09-03T07:05:25;97346.84;;;17.03;68.93
967;BME280;56108;48.730;9.304;2022-09-03T07:07:34;97351.97;;;17.14;68.44
967;BME280;56108;48.730;9.304;2022-09-03T07:09:42;97350.13;;;17.15;67.58
967;BME280;56108;48.730;9.304;2022-09-03T07:11:52;97348.91;;;17.45;67.55
967;BME280;56108;48.730;9.304;2022-09-03T07:14:00;97347.81;;;17.38;66.83
967;BME280;56108;48.730;9.304;2022-09-03T07:16:10;97353.69;;;17.33;66.59
967;BME280;56108;48.730;9.304;2022-09-03T07:18:21;97347.38;;;17.25;67.39
967;BME280;56108;48.730;9.304;2022-09-03T07:20:29;97353.84;;;17.14;68.21
967;BME280;56108;48.730;9.304;2022-09-03T07:22:38;97351.72;;;17.43;67.81
967;BME280;56108;48.730;9.304;2022-09-03T07:24:46;97349.56;;;17.47;66.90
967;BME280;56108;48.730;9.304;2022-09-03T07:26:56;97353.28;;;17.46;68.05
967;BME280;56108;48.730;9.304;2022-09-03T07:29:04;97357.81;;;17.28;68.45
967;BME280;56108;48.730;9.304;2022-09-03T07:31:14;97351.59;;;17.27;68.41
967;BME280;56108;48.730;9.304;2022-09-03T07:33:27;97344.41;;;17.54;67.51
967;BME280;56108;48.730;9.304;2022-09-03T07:35:38;97352.69;;;17.34;68.28
967;BME280;56108;48.730;9.304;2022-09-03T07:37:46;97361.50;;;17.44;67.58
967;BME280;56108;48.730;9.304;2022-09-03T07:39:54;97350.97;;;17.51;67.73
967;BME280;56108;48.730;9.304;2022-09-03T07:42:02;97351.94;;;17.68;67.12
967;BME280;56108;48.730;9.304;2022-09-03T07:44:16;97353.75;;;17.85;67.31
967;BME280;56108;48.730;9.304;2022-09-03T07:46:26;97357.69;;;18.17;66.07
967;BME280;56108;48.730;9.304;2022-09-03T07:48:37;97362.53;;;18.47;65.88
967;BME280;56108;48.730;9.304;2022-09-03T07:50:45;97366.59;;;18.86;63.41
967;BME280;56108;48.730;9.304;2022-09-03T07:52:55;97366.63;;;19.02;63.01
967;BME280;56108;48.730;9.304;2022-09-03T07:55:05;97372.25;;;19.41;62.18
967;BME280;56108;48.730;9.304;2022-09-03T07:57:13;97367.88;;;19.73;61.34
967;BME280;56108;48.730;9.304;2022-09-03T07:59:21;97376.66;;;19.67;60.68
967;BME280;56108;48.730;9.304;2022-09-03T08:01:30;97370.72;;;19.47;60.15
967;BME280;56108;48.730;9.304;2022-09-03T08:03:43;97368.03;;;19.47;61.26
967;BME280;56108;48.730;9.304;2022-09-03T08:05:51;97374.59;;;19.28;62.28
967;BME280;56108;48.730;9.304;2022-09-03T08:07:59;97359.09;;;19.46;62.11
967;BME280;56108;48.730;9.304;2022-09-03T08:10:09;97364.00;;;19.84;62.64
967;BME280;56108;48.730;9.304;2022-09-03T08:12:17;97373.09;;;20.15;60.02
967;BME280;56108;48.730;9.304;2022-09-03T08:14:25;97380.41;;;20.46;60.16
967;BME280;56108;48.730;9.304;2022-09-03T08:16:35;97388.06;;;20.42;58.07
967;BME280;56108;48.730;9.304;2022-09-03T08:18:46;97387.38;;;20.48;58.70
967;BME280;56108;48.730;9.304;2022-09-03T08:20:58;97389.44;;;20.22;58.67
967;BME280;56108;48.730;9.304;2022-09-03T08:23:06;97384.25;;;19.71;61.01
967;BME280;56108;48.730;9.304;2022-09-03T08:25:14;97387.31;;;19.60;62.04
967;BME280;56108;48.730;9.304;2022-09-03T08:27:22;97372.59;;;20.03;61.90
967;BME280;56108;48.730;9.304;2022-09-03T08:29:30;97373.78;;;20.01;61.38
967;BME280;56108;48.730;9.304;2022-09-03T08:31:38;97374.84;;;20.64;59.84
967;BME280;56108;48.730;9.304;2022-09-03T08:33:52;97378.47;;;20.23;60.57
967;BME280;56108;48.730;9.304;2022-09-03T08:36:03;97379.81;;;20.27;59.63
967;BME280;56108;48.730;9.304;2022-09-03T08:38:12;97387.63;;;19.98;60.64
967;BME280;56108;48.730;9.304;2022-09-03T08:40:20;97379.16;;;20.17;61.26
967;BME280;56108;48.730;9.304;2022-09-03T08:42:39;97380.38;;;19.82;62.37
967;BME280;56108;48.730;9.304;2022-09-03T08:44:54;97381.34;;;20.14;61.94
967;BME280;56108;48.730;9.304;2022-09-03T08:47:08;97392.78;;;20.40;60.43
967;BME280;56108;48.730;9.304;2022-09-03T08:49:23;97386.03;;;20.92;60.27
967;BME280;56108;48.730;9.304;2022-09-03T08:51:33;97390.47;;;20.84;58.51
967;BME280;56108;48.730;9.304;2022-09-03T08:53:46;97404.75;;;21.01;60.47
967;BME280;56108;48.730;9.304;2022-09-03T08:56:02;97402.88;;;21.41;58.40
967;BME280;56108;48.730;9.304;2022-09-03T08:58:15;97404.88;;;21.08;57.50
967;BME280;56108;48.730;9.304;2022-09-03T09:00:23;97402.25;;;21.31;56.97
967;BME280;56108;48.730;9.304;2022-09-03T09:02:39;97400.06;;;21.95;55.90
967;BME280;56108;48.730;9.304;2022-09-03T09:04:59;97398.78;;;22.58;54.88
967;BME280;56108;48.730;9.304;2022-09-03T09:07:19;97400.13;;;22.92;56.19
967;BME280;56108;48.730;9.304;2022-09-03T09:09:36;97404.34;;;22.27;55.14
967;BME280;56108;48.730;9.304;2022-09-03T09:11:52;97407.00;;;22.35;55.48
967;BME280;56108;48.730;9.304;2022-09-03T09:14:13;97416.56;;;22.08;55.23
967;BME280;56108;48.730;9.304;2022-09-03T09:16:31;97413.19;;;22.74;55.29
967;BME280;56108;48.730;9.304;2022-09-03T09:18:50;97421.63;;;23.44;54.41
967;BME280;56108;48.730;9.304;2022-09-03T09:21:08;97424.97;;;23.47;52.37
967;BME280;56108;48.730;9.304;2022-09-03T09:23:28;97422.94;;;22.98;52.26
967;BME280;56108;48.730;9.304;2022-09-03T09:25:46;97424.03;;;23.03;53.49
967;BME280;56108;48.730;9.304;2022-09-03T09:27:58;97420.16;;;23.63;54.08
967;BME280;56108;48.730;9.304;2022-09-03T09:30:08;97421.53;;;23.59;53.53
967;BME280;56108;48.730;9.304;2022-09-03T09:32:18;97413.22;;;23.61;54.30
967;BME280;56108;48.730;9.304;2022-09-03T09:34:27;97419.47;;;22.89;52.52
967;BME280;56108;48.730;9.304;2022-09-03T09:36:42;97409.41;;;21.93;56.39
967;BME280;56108;48.730;9.304;2022-09-03T09:38:52;97413.00;;;21.39;58.45
967;BME280;56108;48.730;9.304;2022-09-03T09:41:08;97399.78;;;21.44;59.03
967;BME280;56108;48.730;9.304;2022-09-03T09:43:18;97403.31;;;21.45;59.22
967;BME280;56108;48.730;9.304;2022-09-03T09:45:26;97397.50;;;21.33;59.16
967;BME280;56108;48.730;9.304;2022-09-03T09:47:37;97398.50;;;22.68;55.81
967;BME280;56108;48.730;9.304;2022-09-03T09:49:54;97420.72;;;25.20;48.16
967;BME280;56108;48.730;9.304;2022-09-03T09:52:11;97436.09;;;26.49;44.36
967;BME280;56108;48.730;9.304;2022-09-03T09:54:25;97450.38;;;27.42;42.22
967;BME280;56108;48.730;9.304;2022-09-03T09:56:33;97439.97;;;25.73;46.04
967;BME280;56108;48.730;9.304;2022-09-03T09:58:45;97421.84;;;24.91;48.89
967;BME280;56108;48.730;9.304;2022-09-03T10:01:04;97411.53;;;24.87;50.85
967;BME280;56108;48.730;9.304;2022-09-03T10:03:18;97423.28;;;24.87;49.56
967;BME280;56108;48.730;9.304;2022-09-03T10:05:28;97410.47;;;24.81;50.99
967;BME280;56108;48.730;9.304;2022-09-03T10:07:41;97417.22;;;25.33;48.06
967;BME280;56108;48.730;9.304;2022-09-03T10:10:04;97429.69;;;25.69;46.73
967;BME280;56108;48.730;9.304;2022-09-03T10:12:17;97421.16;;;25.85;47.46
967;BME280;56108;48.730;9.304;2022-09-03T10:14:31;97417.72;;;24.74;48.45
967;BME280;56108;48.730;9.304;2022-09-03T10:16:43;97417.06;;;24.37;49.32
967;BME280;56108;48.730;9.304;2022-09-03T10:19:02;97408.72;;;24.73;51.57
967;BME280;56108;48.730;9.304;2022-09-03T10:21:14;97406.22;;;25.07;52.15
967;BME280;56108;48.730;9.304;2022-09-03T10:23:32;97406.38;;;25.05;50.84
967;BME280;56108;48.730;9.304;2022-09-03T10:25:51;97411.03;;;24.70;51.09
967;BME280;56108;48.730;9.304;2022-09-03T10:28:05;97411.38;;;23.83;52.07
967;BME280;56108;48.730;9.304;2022-09-03T10:30:18;97406.41;;;24.36;52.71
967;BME280;56108;48.730;9.304;2022-09-03T10:32:34;97410.72;;;24.30;53.11
967;BME280;56108;48.730;9.304;2022-09-03T10:34:58;97394.03;;;24.33;54.97
967;BME280;56108;48.730;9.304;2022-09-03T10:37:18;97400.59;;;23.96;53.17
967;BME280;56108;48.730;9.304;2022-09-03T10:39:41;97403.72;;;24.42;53.21
967;BME280;56108;48.730;9.304;2022-09-03T10:42:06;97412.38;;;24.87;51.29
967;BME280;56108;48.730;9.304;2022-09-03T10:44:29;97408.16;;;25.26;51.89
967;BME280;56108;48.730;9.304;2022-09-03T10:46:47;97413.38;;;25.21;49.29
967;BME280;56108;48.730;9.304;2022-09-03T10:49:13;97417.03;;;25.00;49.99
967;BME280;56108;48.730;9.304;2022-09-03T10:51:26;97399.31;;;24.69;51.75
967;BME280;56108;48.730;9.304;2022-09-03T10:53:48;97400.38;;;24.75;52.98
967;BME280;56108;48.730;9.304;2022-09-03T10:56:05;97395.94;;;24.67;52.06
967;BME280;56108;48.730;9.304;2022-09-03T10:58:39;97403.06;;;24.68;51.99
967;BME280;56108;48.730;9.304;2022-09-03T11:00:52;97391.22;;;24.89;53.75
967;BME280;56108;48.730;9.304;2022-09-03T11:03:25;97399.22;;;24.91;51.59
967;BME280;56108;48.730;9.304;2022-09-03T11:05:41;97395.03;;;24.32;50.91
967;BME280;56108;48.730;9.304;2022-09-03T11:07:52;97395.81;;;23.70;51.95
967;BME280;56108;48.730;9.304;2022-09-03T11:10:15;97378.56;;;23.63;54.83
967;BME280;56108;48.730;9.304;2022-09-03T11:12:32;97373.03;;;23.99;54.63
967;BME280;56108;48.730;9.304;2022-09-03T11:14:44;97377.19;;;23.95;52.49
967;BME280;56108;48.730;9.304;2022-09-03T11:16:58;97376.78;;;24.26;53.53
967;BME280;56108;48.730;9.304;2022-09-03T11:19:11;97375.22;;;24.66;53.71
967;BME280;56108;48.730;9.304;2022-09-03T11:21:24;97371.38;;;23.98;52.06
967;BME280;56108;48.730;9.304;2022-09-03T11:23:36;97370.78;;;24.03;53.21
967;BME280;56108;48.730;9.304;2022-09-03T11:25:50;97374.09;;;23.55;52.51
967;BME280;56108;48.730;9.304;2022-09-03T11:28:08;97361.38;;;23.77;53.44
967;BME280;56108;48.730;9.304;2022-09-03T11:30:22;97353.56;;;23.31;54.40
967;BME280;56108;48.730;9.304;2022-09-03T11:32:42;97358.38;;;22.93;54.64
967;BME280;56108;48.730;9.304;2022-09-03T11:34:59;97346.69;;;22.63;56.59
967;BME280;56108;48.730;9.304;2022-09-03T11:37:18;97351.34;;;22.99;57.04
967;BME280;56108;48.730;9.304;2022-09-03T11:39:34;97344.00;;;23.35;58.75
967;BME280;56108;48.730;9.304;2022-09-03T11:41:43;97353.25;;;23.41;58.65
967;BME280;56108;48.730;9.304;2022-09-03T11:44:16;97357.69;;;23.49;56.70
967;BME280;56108;48.730;9.304;2022-09-03T11:46:29;97350.84;;;23.31;55.67
967;BME280;56108;48.730;9.304;2022-09-03T11:48:40;97359.94;;;23.02;56.58
967;BME280;56108;48.730;9.304;2022-09-03T11:50:54;97352.75;;;22.21;57.40
967;BME280;56108;48.730;9.304;2022-09-03T11:53:20;97345.09;;;21.72;59.40
967;BME280;56108;48.730;9.304;2022-09-03T11:55:45;97365.53;;;21.74;59.07
967;BME280;56108;48.730;9.304;2022-09-03T11:57:57;97376.47;;;21.81;59.22
967;BME280;56108;48.730;9.304;2022-09-03T12:00:13;97382.22;;;22.01;60.07
967;BME280;56108;48.730;9.304;2022-09-03T12:02:26;97386.91;;;22.07;62.28
967;BME280;56108;48.730;9.304;2022-09-03T12:04:42;97389.03;;;21.97;62.27